createdAt,value
2023-01-18T00:02:06.450Z,98374.50
2023-01-18T00:04:34.693Z,98375.06
2023-01-18T00:07:01.167Z,98373.81
2023-01-18T00:09:27.633Z,98371.53
2023-01-18T00:14:48.020Z,98365.47
2023-01-18T00:17:15.405Z,98368.13
2023-01-18T00:19:41.894Z,98363.94
2023-01-18T00:22:08.392Z,98366.47
2023-01-18T00:24:34.866Z,98361.03
2023-01-18T00:29:55.196Z,98356.91
2023-01-18T00:32:21.805Z,98360.59
2023-01-18T00:34:50.403Z,98351.00
2023-01-18T00:37:17.946Z,98354.84
2023-01-18T00:39:44.421Z,98346.53
2023-01-18T00:44:55.900Z,98347.72
2023-01-18T00:47:22.337Z,98350.50
2023-01-18T00:49:48.817Z,98344.97
2023-01-18T00:52:16.185Z,98346.03
2023-01-18T00:54:43.583Z,98339.72
2023-01-18T00:57:10.044Z,98338.38
2023-01-18T00:59:36.567Z,98329.13
2023-01-18T01:02:03.130Z,98320.66
2023-01-18T01:04:29.680Z,98324.34
2023-01-18T01:06:57.052Z,98310.00
2023-01-18T01:09:24.454Z,98313.56
2023-01-18T01:11:50.975Z,98310.78
2023-01-18T01:14:18.353Z,98307.34
2023-01-18T01:16:45.806Z,98311.03
2023-01-18T01:19:13.219Z,98300.69
2023-01-18T01:21:39.687Z,98305.03
2023-01-18T01:24:07.122Z,98305.81
2023-01-18T01:26:33.582Z,98302.06
2023-01-18T01:29:00.985Z,98291.72
2023-01-18T01:31:28.375Z,98295.91
2023-01-18T01:33:55.778Z,98296.03
2023-01-18T01:36:22.230Z,98297.47
2023-01-18T01:38:49.616Z,98303.16
2023-01-18T01:41:16.086Z,98288.19
2023-01-18T01:43:43.484Z,98293.25
2023-01-18T01:46:10.959Z,98287.38
2023-01-18T01:48:37.479Z,98291.72
2023-01-18T01:51:04.888Z,98303.59
2023-01-18T01:53:31.312Z,98305.94
2023-01-18T01:55:58.707Z,98300.50
2023-01-18T01:58:25.178Z,98297.28
2023-01-18T02:00:51.718Z,98298.38
2023-01-18T02:03:18.195Z,98290.81
2023-01-18T02:05:44.664Z,98296.38
2023-01-18T02:08:12.036Z,98297.59
2023-01-18T02:10:38.527Z,98306.25
2023-01-18T02:13:04.979Z,98306.69
2023-01-18T02:18:17.148Z,98298.22
2023-01-18T02:20:43.599Z,98306.53
2023-01-18T02:23:10.073Z,98310.28
2023-01-18T02:25:36.528Z,98306.38
2023-01-18T02:28:03.032Z,98296.38
2023-01-18T02:33:14.566Z,98303.16
2023-01-18T02:35:41.956Z,98293.59
2023-01-18T02:38:08.417Z,98293.13
2023-01-18T02:40:35.822Z,98299.28
2023-01-18T02:43:03.212Z,98297.91
2023-01-18T02:48:24.778Z,98314.41
2023-01-18T02:50:52.240Z,98306.38
2023-01-18T02:53:19.633Z,98300.19
2023-01-18T02:55:47.027Z,98294.97
2023-01-18T02:58:13.487Z,98302.19
2023-01-18T03:03:24.755Z,98293.06
2023-01-18T03:05:51.199Z,98287.38
2023-01-18T03:08:17.671Z,98281.66
2023-01-18T03:10:44.923Z,98280.94
2023-01-18T03:13:12.232Z,98277.97
2023-01-18T03:18:23.617Z,98272.41
2023-01-18T03:20:50.033Z,98271.63
2023-01-18T03:23:16.484Z,98265.31
2023-01-18T03:25:43.854Z,98251.72
2023-01-18T03:28:10.297Z,98255.44
2023-01-18T03:33:31.507Z,98235.28
2023-01-18T03:35:58.775Z,98232.63
2023-01-18T03:38:25.194Z,98219.97
2023-01-18T03:40:52.549Z,98212.38
2023-01-18T03:43:18.976Z,98209.78
2023-01-18T03:48:40.185Z,98202.25
2023-01-18T03:51:07.470Z,98197.59
2023-01-18T03:53:34.732Z,98194.69
2023-01-18T03:56:03.102Z,98185.72
2023-01-18T03:58:30.429Z,98176.94
2023-01-18T04:03:42.435Z,98169.06
2023-01-18T04:06:09.729Z,98162.72
2023-01-18T04:08:37.087Z,98154.38
2023-01-18T04:11:06.183Z,98150.53
2023-01-18T04:13:33.450Z,98142.66
2023-01-18T04:18:56.651Z,98130.16
2023-01-18T04:21:23.091Z,98125.81
2023-01-18T04:23:49.511Z,98140.19
2023-01-18T04:26:16.894Z,98134.47
2023-01-18T04:28:43.388Z,98139.72
2023-01-18T04:33:56.275Z,98143.41
2023-01-18T04:36:23.575Z,98141.09
2023-01-18T04:38:50.847Z,98137.25
2023-01-18T04:41:17.275Z,98134.03
2023-01-18T04:43:43.801Z,98133.72
2023-01-18T04:48:54.300Z,98140.47
2023-01-18T04:51:21.558Z,98144.06
2023-01-18T04:53:48.015Z,98130.78
2023-01-18T04:56:14.471Z,98130.63
2023-01-18T04:58:43.647Z,98142.81
2023-01-18T05:04:03.975Z,98142.22
2023-01-18T05:06:33.990Z,98146.84
2023-01-18T05:09:00.487Z,98138.97
2023-01-18T05:11:26.937Z,98150.06
2023-01-18T05:13:53.381Z,98146.19
2023-01-18T05:19:03.735Z,98148.50
2023-01-18T05:21:32.891Z,98138.94
2023-01-18T05:24:00.147Z,98136.19
2023-01-18T05:26:27.414Z,98131.69
2023-01-18T05:28:57.312Z,98127.84
2023-01-18T05:34:19.640Z,98136.19
2023-01-18T05:36:47.911Z,98137.41
2023-01-18T05:39:14.384Z,98125.38
2023-01-18T05:41:43.620Z,98120.13
2023-01-18T05:44:10.065Z,98113.81
2023-01-18T05:49:22.426Z,98096.38
2023-01-18T05:51:50.681Z,98089.56
2023-01-18T05:54:19.013Z,98084.16
2023-01-18T05:56:48.180Z,98077.38
2023-01-18T05:59:14.647Z,98068.88
2023-01-18T06:04:35.270Z,98053.47
2023-01-18T06:07:02.540Z,98051.31
2023-01-18T06:09:29.965Z,98037.91
2023-01-18T06:11:56.464Z,98035.13
2023-01-18T06:14:22.928Z,98031.13
2023-01-18T06:19:33.647Z,98041.13
2023-01-18T06:22:01.047Z,98035.75
2023-01-18T06:24:28.443Z,98037.91
2023-01-18T06:26:54.911Z,98032.03
2023-01-18T06:29:21.444Z,98029.88
2023-01-18T06:34:33.913Z,98002.56
2023-01-18T06:37:00.468Z,97983.13
2023-01-18T06:39:26.925Z,97970.00
2023-01-18T06:41:53.411Z,97965.50
2023-01-18T06:44:20.812Z,97976.47
2023-01-18T06:46:47.314Z,97968.44
2023-01-18T06:49:13.978Z,97976.47
2023-01-18T06:51:41.703Z,97997.63
2023-01-18T06:54:09.351Z,98026.78
2023-01-18T06:56:36.177Z,98022.19
2023-01-18T06:59:03.589Z,98019.41
2023-01-18T07:01:31.141Z,98016.47
2023-01-18T07:03:58.900Z,97992.53
2023-01-18T07:06:25.962Z,97986.38
2023-01-18T07:08:53.500Z,97987.59
2023-01-18T07:11:19.975Z,97980.50
2023-01-18T07:13:46.457Z,97984.03
2023-01-18T07:16:13.906Z,97989.00
2023-01-18T07:18:40.386Z,97997.47
2023-01-18T07:21:07.776Z,98001.16
2023-01-18T07:23:34.246Z,98005.66
2023-01-18T07:26:00.872Z,98014.75
2023-01-18T07:28:28.341Z,98010.59
2023-01-18T07:30:55.710Z,98019.72
2023-01-18T07:33:23.077Z,98024.66
2023-01-18T07:35:49.604Z,98017.53
2023-01-18T07:38:16.964Z,98007.19
2023-01-18T07:40:43.450Z,98003.50
2023-01-18T07:43:10.845Z,97995.00
2023-01-18T07:45:38.296Z,97994.69
2023-01-18T07:48:04.775Z,98001.16
2023-01-18T07:50:32.138Z,97993.00
2023-01-18T07:52:59.911Z,98001.81
2023-01-18T07:55:27.514Z,97998.84
2023-01-18T07:57:54.881Z,97998.69
2023-01-18T08:00:22.239Z,97998.09
2023-01-18T08:02:48.747Z,98004.09
2023-01-18T08:08:01.147Z,97993.44
2023-01-18T08:10:27.687Z,97992.38
2023-01-18T08:12:54.258Z,97984.34
2023-01-18T08:15:21.623Z,97970.59
2023-01-18T08:17:48.999Z,97968.28
2023-01-18T08:22:59.823Z,97993.59
2023-01-18T08:25:26.585Z,97990.22
2023-01-18T08:27:53.090Z,97977.69
2023-01-18T08:30:20.510Z,97967.53
2023-01-18T08:32:47.923Z,97962.72
2023-01-18T08:38:09.477Z,97942.34
2023-01-18T08:40:36.899Z,97932.94
2023-01-18T08:43:04.311Z,97918.59
2023-01-18T08:45:31.771Z,97920.75
2023-01-18T08:47:59.168Z,97928.78
2023-01-18T08:53:09.520Z,97942.03
2023-01-18T08:55:36.964Z,97955.19
2023-01-18T08:58:03.525Z,97945.72
2023-01-18T09:00:30.948Z,97958.72
2023-01-18T09:02:58.863Z,97955.63
2023-01-18T09:08:21.732Z,97964.44
2023-01-18T09:10:48.245Z,97955.47
2023-01-18T09:13:15.682Z,97962.91
2023-01-18T09:15:42.232Z,97957.66
2023-01-18T09:18:08.742Z,97952.53
2023-01-18T09:23:20.086Z,97943.75
2023-01-18T09:25:46.567Z,97940.19
2023-01-18T09:28:13.030Z,97927.06
2023-01-18T09:30:40.413Z,97934.47
2023-01-18T09:33:06.900Z,97915.63
2023-01-18T09:38:18.438Z,97904.97
2023-01-18T09:40:45.889Z,97892.47
2023-01-18T09:43:13.275Z,97886.91
2023-01-18T09:45:39.756Z,97884.94
2023-01-18T09:48:06.220Z,97886.44
2023-01-18T09:53:27.389Z,97877.47
2023-01-18T09:55:53.904Z,97876.25
2023-01-18T09:58:20.383Z,97872.56
2023-01-18T10:00:47.889Z,97877.19
2023-01-18T10:03:15.339Z,97897.88
2023-01-18T10:08:35.843Z,97915.47
2023-01-18T10:11:02.394Z,97903.13
2023-01-18T10:13:29.800Z,97890.03
2023-01-18T10:15:57.145Z,97879.69
2023-01-18T10:18:23.617Z,97881.06
2023-01-18T10:23:36.175Z,97889.84
2023-01-18T10:26:02.654Z,97889.22
2023-01-18T10:28:29.104Z,97888.63
2023-01-18T10:30:56.416Z,97890.03
2023-01-18T10:33:22.875Z,97889.69
2023-01-18T10:38:34.344Z,97877.31
2023-01-18T10:41:01.571Z,97870.06
2023-01-18T10:43:28.871Z,97848.16
2023-01-18T10:45:55.387Z,97835.16
2023-01-18T10:48:22.782Z,97846.00
2023-01-18T10:53:34.222Z,97864.34
2023-01-18T10:56:01.448Z,97860.50
2023-01-18T10:58:27.928Z,97847.38
2023-01-18T11:00:57.896Z,97841.47
2023-01-18T11:03:24.446Z,97837.69
2023-01-18T11:08:47.400Z,97830.84
2023-01-18T11:11:13.779Z,97830.53
2023-01-18T11:13:42.161Z,97825.75
2023-01-18T11:16:11.370Z,97825.75
2023-01-18T11:18:39.680Z,97822.19
2023-01-18T11:24:02.766Z,97818.81
2023-01-18T11:26:29.202Z,97818.94
2023-01-18T11:28:57.492Z,97810.94
2023-01-18T11:31:24.146Z,97816.84
2023-01-18T11:33:50.708Z,97820.03
2023-01-18T11:39:01.288Z,97825.59
2023-01-18T11:41:28.649Z,97827.00
2023-01-18T11:43:55.141Z,97815.28
2023-01-18T11:46:21.591Z,97821.44
2023-01-18T11:48:49.203Z,97816.81
2023-01-18T11:53:59.827Z,97820.97
2023-01-18T11:56:26.267Z,97817.44
2023-01-18T11:58:53.494Z,97821.56
2023-01-18T12:01:20.894Z,97821.38
2023-01-18T12:03:47.364Z,97824.81
2023-01-18T12:09:08.133Z,97802.91
2023-01-18T12:11:35.459Z,97803.19
2023-01-18T12:14:01.905Z,97801.63
2023-01-18T12:16:29.236Z,97807.03
2023-01-18T12:18:56.580Z,97817.84
2023-01-18T12:24:18.919Z,97821.22
2023-01-18T12:26:46.340Z,97822.91
2023-01-18T12:29:12.780Z,97819.88
2023-01-18T12:31:40.028Z,97820.47
2023-01-18T12:34:07.377Z,97829.25
2023-01-18T12:39:20.504Z,97833.59
2023-01-18T12:41:47.163Z,97830.34
2023-01-18T12:44:14.437Z,97819.41
2023-01-18T12:46:42.784Z,97818.16
2023-01-18T12:49:10.053Z,97819.22
2023-01-18T12:51:38.363Z,97832.03
2023-01-18T12:54:04.819Z,97834.94
2023-01-18T12:56:32.102Z,97850.75
2023-01-18T12:58:58.541Z,97856.13
2023-01-18T13:01:25.131Z,97849.94
2023-01-18T13:03:51.626Z,97858.63
2023-01-18T13:06:18.999Z,97875.13
2023-01-18T13:08:46.244Z,97856.59
2023-01-18T13:11:13.514Z,97859.84
2023-01-18T13:13:40.773Z,97858.63
2023-01-18T13:16:08.070Z,97854.75
2023-01-18T13:18:35.344Z,97866.19
2023-01-18T13:21:02.616Z,97877.78
2023-01-18T13:23:29.033Z,97883.81
2023-01-18T13:25:58.225Z,97882.09
2023-01-18T13:28:26.561Z,97890.59
2023-01-18T13:30:54.882Z,97886.41
2023-01-18T13:33:21.358Z,97884.69
2023-01-18T13:35:47.821Z,97889.66
2023-01-18T13:38:14.253Z,97888.44
2023-01-18T13:40:40.742Z,97887.81
2023-01-18T13:43:09.054Z,97896.78
2023-01-18T13:45:35.469Z,97895.38
2023-01-18T13:48:02.402Z,97902.81
2023-01-18T13:50:29.009Z,97909.41
2023-01-18T13:52:55.470Z,97909.41
2023-01-18T13:55:23.832Z,97905.72
2023-01-18T13:57:52.153Z,97910.19
2023-01-18T14:00:20.497Z,97915.75
2023-01-18T14:02:47.000Z,97922.09
2023-01-18T14:05:16.224Z,97918.34
2023-01-18T14:07:42.688Z,97928.56
2023-01-18T14:13:03.628Z,97931.81
2023-01-18T14:15:31.087Z,97934.56
2023-01-18T14:17:59.334Z,97946.03
2023-01-18T14:20:25.958Z,97950.34
2023-01-18T14:22:52.442Z,97947.56
2023-01-18T14:28:13.005Z,97946.66
2023-01-18T14:30:39.486Z,97952.38
2023-01-18T14:33:06.905Z,97958.69
2023-01-18T14:35:34.270Z,97953.31
2023-01-18T14:38:16.848Z,97952.84
2023-01-18T14:43:28.827Z,97964.72
2023-01-18T14:45:56.166Z,97968.56
2023-01-18T14:48:22.582Z,97975.84
2023-01-18T14:50:49.824Z,97969.06
2023-01-18T14:53:17.106Z,97973.06
2023-01-18T14:58:28.442Z,97994.38
2023-01-18T15:00:55.007Z,98008.28
2023-01-18T15:03:24.359Z,98013.53
2023-01-18T15:05:50.908Z,98011.38
2023-01-18T15:08:19.229Z,98014.75
2023-01-18T15:13:31.449Z,98024.66
2023-01-18T15:16:00.878Z,98027.91
2023-01-18T15:18:30.250Z,98025.13
2023-01-18T15:20:56.649Z,98037.00
2023-01-18T15:23:23.209Z,98045.34
2023-01-18T15:28:37.073Z,98062.03
2023-01-18T15:31:03.450Z,98078.41
2023-01-18T15:33:30.688Z,98075.16
2023-01-18T15:35:57.934Z,98083.50
2023-01-18T15:38:26.325Z,98079.16
2023-01-18T15:43:46.447Z,98095.09
2023-01-18T15:46:13.675Z,98097.56
2023-01-18T15:48:40.028Z,98095.53
2023-01-18T15:51:06.426Z,98100.94
2023-01-18T15:53:32.841Z,98114.53
2023-01-18T15:58:53.166Z,98121.63
2023-01-18T16:01:19.675Z,98125.66
2023-01-18T16:03:46.986Z,98135.22
2023-01-18T16:06:13.514Z,98140.63
2023-01-18T16:08:39.863Z,98147.91
2023-01-18T16:14:00.451Z,98168.88
2023-01-18T16:16:26.834Z,98169.34
2023-01-18T16:18:53.251Z,98178.94
2023-01-18T16:21:19.781Z,98183.72
2023-01-18T16:23:46.165Z,98194.38
2023-01-18T16:28:56.496Z,98209.06
2023-01-18T16:31:23.114Z,98211.38
2023-01-18T16:33:49.523Z,98211.06
2023-01-18T16:36:16.037Z,98232.06
2023-01-18T16:38:42.558Z,98251.97
2023-01-18T16:43:52.881Z,98263.09
2023-01-18T16:46:19.307Z,98264.00
2023-01-18T16:48:45.697Z,98272.69
2023-01-18T16:51:13.028Z,98280.56
2023-01-18T16:53:39.370Z,98276.25
2023-01-18T16:58:59.574Z,98286.09
2023-01-18T17:01:26.935Z,98292.78
2023-01-18T17:03:53.328Z,98296.59
2023-01-18T17:06:20.584Z,98298.66
2023-01-18T17:08:46.989Z,98309.47
2023-01-18T17:14:06.977Z,98325.38
2023-01-18T17:16:33.377Z,98325.81
2023-01-18T17:18:59.781Z,98329.81
2023-01-18T17:21:26.203Z,98322.91
2023-01-18T17:23:52.588Z,98338.16
2023-01-18T17:29:03.705Z,98359.50
2023-01-18T17:31:30.086Z,98363.84
2023-01-18T17:33:56.482Z,98368.63
2023-01-18T17:36:22.856Z,98374.97
2023-01-18T17:38:49.286Z,98382.19
2023-01-18T17:44:00.470Z,98390.69
2023-01-18T17:46:26.857Z,98391.44
2023-01-18T17:48:53.265Z,98400.56
2023-01-18T17:51:20.500Z,98397.44
2023-01-18T17:53:46.858Z,98407.66
2023-01-18T17:59:10.047Z,98418.03
2023-01-18T18:01:36.474Z,98426.38
2023-01-18T18:04:02.918Z,98427.91
2023-01-18T18:06:31.539Z,98436.38
2023-01-18T18:08:58.125Z,98430.69
2023-01-18T18:14:19.056Z,98449.81
2023-01-18T18:16:45.646Z,98454.16
2023-01-18T18:19:12.966Z,98458.03
2023-01-18T18:21:39.330Z,98465.75
2023-01-18T18:24:05.737Z,98470.41
2023-01-18T18:29:16.257Z,98468.06
2023-01-18T18:31:42.620Z,98481.53
2023-01-18T18:34:09.221Z,98491.84
2023-01-18T18:36:35.591Z,98493.84
2023-01-18T18:39:01.945Z,98497.41
2023-01-18T18:41:28.303Z,98507.88
2023-01-18T18:43:54.674Z,98516.09
2023-01-18T18:46:21.962Z,98530.44
2023-01-18T18:48:48.306Z,98538.34
2023-01-18T18:51:17.583Z,98548.38
2023-01-18T18:53:43.937Z,98554.06
2023-01-18T18:56:11.180Z,98560.38
2023-01-18T18:58:37.763Z,98562.28
2023-01-18T19:01:04.221Z,98564.13
2023-01-18T19:03:30.668Z,98575.72
2023-01-18T19:05:57.107Z,98573.53
2023-01-18T19:08:23.525Z,98583.06
2023-01-18T19:10:50.065Z,98601.56
2023-01-18T19:13:16.411Z,98614.66
2023-01-18T19:15:42.768Z,98625.03
2023-01-18T19:18:09.414Z,98625.13
2023-01-18T19:20:35.783Z,98637.34
2023-01-18T19:23:03.405Z,98653.06
2023-01-18T19:25:29.867Z,98654.94
2023-01-18T19:27:56.272Z,98672.84
2023-01-18T19:30:25.417Z,98678.06
2023-01-18T19:32:51.864Z,98685.63
2023-01-18T19:35:18.258Z,98698.53
2023-01-18T19:37:45.673Z,98693.75
2023-01-18T19:40:12.089Z,98698.84
2023-01-18T19:42:39.335Z,98708.31
2023-01-18T19:45:08.091Z,98704.28
2023-01-18T19:47:37.337Z,98705.88
2023-01-18T19:50:03.744Z,98711.09
2023-01-18T19:52:32.051Z,98708.75
2023-01-18T19:54:58.487Z,98707.50
2023-01-18T19:57:25.128Z,98709.97
2023-01-18T20:02:39.489Z,98725.19
2023-01-18T20:05:07.986Z,98729.97
2023-01-18T20:07:34.381Z,98729.97
2023-01-18T20:10:02.705Z,98729.97
2023-01-18T20:12:29.961Z,98727.19
2023-01-18T20:17:50.892Z,98747.41
2023-01-18T20:20:24.305Z,98751.88
2023-01-18T20:22:58.391Z,98770.09
2023-01-18T20:25:25.173Z,98774.44
2023-01-18T20:27:51.614Z,98786.00
2023-01-18T20:33:02.461Z,98811.00
2023-01-18T20:35:30.031Z,98816.22
2023-01-18T20:37:57.329Z,98799.13
2023-01-18T20:40:24.671Z,98802.66
2023-01-18T20:42:52.173Z,98805.09
2023-01-18T20:48:03.769Z,98834.00
2023-01-18T20:50:31.141Z,98833.22
2023-01-18T20:52:58.024Z,98843.56
2023-01-18T20:55:25.567Z,98839.56
2023-01-18T20:57:52.922Z,98842.78
2023-01-18T21:00:20.392Z,98863.00
2023-01-18T21:02:47.530Z,98870.22
2023-01-18T21:05:14.034Z,98873.34
2023-01-18T21:07:41.766Z,98879.00
2023-01-18T21:10:09.285Z,98888.47
2023-01-18T21:12:36.078Z,98887.66
2023-01-18T21:17:47.073Z,98901.22
2023-01-18T21:20:13.516Z,98914.34
2023-01-18T21:22:39.926Z,98920.22
2023-01-18T21:25:06.410Z,98930.22
2023-01-18T21:27:32.829Z,98933.00
2023-01-18T21:32:54.461Z,98927.25
2023-01-18T21:35:20.966Z,98918.50
2023-01-18T21:37:48.416Z,98921.16
2023-01-18T21:40:15.118Z,98926.38
2023-01-18T21:42:42.534Z,98931.47
2023-01-18T21:47:53.099Z,98948.16
2023-01-18T21:50:19.566Z,98951.72
2023-01-18T21:52:47.979Z,98955.59
2023-01-18T21:55:16.149Z,98966.53
2023-01-18T21:57:42.600Z,98980.31
2023-01-18T22:03:05.204Z,98995.81
2023-01-18T22:05:32.533Z,99009.19
2023-01-18T22:08:00.077Z,99026.31
2023-01-18T22:10:26.786Z,99028.63
2023-01-18T22:12:54.104Z,99033.22
2023-01-18T22:18:15.205Z,99033.41
2023-01-18T22:20:41.729Z,99034.19
2023-01-18T22:23:09.014Z,99045.09
2023-01-18T22:25:36.267Z,99044.38
2023-01-18T22:28:03.664Z,99039.16
2023-01-18T22:33:25.152Z,99040.63
2023-01-18T22:35:52.490Z,99049.41
2023-01-18T22:38:20.834Z,99064.34
2023-01-18T22:40:49.120Z,99067.56
2023-01-18T22:43:16.349Z,99074.44
2023-01-18T22:48:29.260Z,99073.34
2023-01-18T22:50:56.474Z,99076.78
2023-01-18T22:53:23.791Z,99082.25
2023-01-18T22:55:50.289Z,99078.72
2023-01-18T22:58:16.748Z,99090.44
2023-01-18T23:03:37.605Z,99107.16
2023-01-18T23:06:04.187Z,99109.19
2023-01-18T23:08:31.613Z,99099.06
2023-01-18T23:10:58.089Z,99093.25
2023-01-18T23:13:25.491Z,99090.03
2023-01-18T23:18:35.817Z,99100.66
2023-01-18T23:21:02.251Z,99110.97
2023-01-18T23:23:28.775Z,99120.69
2023-01-18T23:25:56.137Z,99121.31
2023-01-18T23:28:23.673Z,99126.41
2023-01-18T23:33:45.807Z,99139.97
2023-01-18T23:36:13.060Z,99133.03
2023-01-18T23:38:40.361Z,99138.09
2023-01-18T23:41:07.622Z,99148.94
2023-01-18T23:43:34.064Z,99154.16
2023-01-18T23:48:54.561Z,99178.63
2023-01-18T23:51:22.930Z,99180.28
2023-01-18T23:53:50.146Z,99179.19
2023-01-18T23:56:19.308Z,99191.00
2023-01-18T23:58:45.805Z,99200.53
